createdAt,value
2018-08-03T00:00:15.668Z,10.50
2018-08-03T00:02:44.117Z,5.17
2018-08-03T00:05:12.592Z,8.20
2018-08-03T00:07:41.076Z,5.67
2018-08-03T00:10:09.523Z,4.03
2018-08-03T00:12:38.009Z,3.67
2018-08-03T00:15:07.206Z,7.00
2018-08-03T00:17:35.712Z,4.57
2018-08-03T00:20:05.233Z,3.00
2018-08-03T00:22:33.808Z,4.20
2018-08-03T00:25:02.305Z,4.93
2018-08-03T00:27:30.712Z,6.07
2018-08-03T00:29:59.145Z,4.90
2018-08-03T00:32:27.564Z,3.93
2018-08-03T00:34:56.021Z,4.37
2018-08-03T00:37:24.704Z,3.20
2018-08-03T00:39:53.129Z,6.43
2018-08-03T00:42:21.541Z,4.53
2018-08-03T00:44:49.962Z,3.07
2018-08-03T00:47:18.386Z,5.37
2018-08-03T00:49:46.788Z,5.57
2018-08-03T00:52:15.257Z,5.50
2018-08-03T00:54:43.712Z,7.03
2018-08-03T00:57:12.153Z,4.73
2018-08-03T00:59:40.592Z,5.97
2018-08-03T01:02:09.097Z,6.70
2018-08-03T01:04:37.540Z,8.60
2018-08-03T01:07:05.976Z,5.67
2018-08-03T01:09:34.448Z,5.17
2018-08-03T01:12:02.892Z,8.07
2018-08-03T01:14:31.430Z,4.57
2018-08-03T01:16:59.936Z,6.03
2018-08-03T01:19:28.452Z,6.37
2018-08-03T01:21:56.892Z,6.47
2018-08-03T01:24:25.308Z,5.27
2018-08-03T01:26:53.806Z,9.30
2018-08-03T01:29:22.232Z,6.70
2018-08-03T01:31:50.680Z,7.63
2018-08-03T01:34:19.172Z,5.33
2018-08-03T01:36:47.633Z,7.50
2018-08-03T01:39:16.088Z,5.63
2018-08-03T01:41:44.512Z,6.00
2018-08-03T01:44:12.948Z,6.10
2018-08-03T01:46:41.361Z,5.57
2018-08-03T01:49:09.800Z,6.93
2018-08-03T01:51:38.277Z,7.20
2018-08-03T01:54:06.749Z,7.07
2018-08-03T01:56:35.204Z,6.37
2018-08-03T01:59:03.700Z,8.33
2018-08-03T02:01:32.144Z,5.87
2018-08-03T02:04:00.585Z,7.10
2018-08-03T02:06:29.613Z,6.70
2018-08-03T02:08:58.036Z,8.37
2018-08-03T02:11:26.475Z,7.17
2018-08-03T02:13:54.904Z,8.47
2018-08-03T02:16:23.409Z,7.83
2018-08-03T02:18:51.824Z,6.67
2018-08-03T02:21:20.296Z,6.93
2018-08-03T02:23:48.729Z,8.73
2018-08-03T02:26:17.169Z,7.37
2018-08-03T02:28:45.580Z,9.67
2018-08-03T02:31:14.033Z,9.53
2018-08-03T02:33:42.501Z,8.27
2018-08-03T02:36:10.971Z,9.10
2018-08-03T02:38:39.396Z,8.17
2018-08-03T02:41:07.865Z,9.83
2018-08-03T02:43:36.304Z,8.90
2018-08-03T02:46:04.826Z,8.37
2018-08-03T02:48:33.267Z,12.50
2018-08-03T02:51:07.869Z,10.00
2018-08-03T02:53:36.320Z,13.47
2018-08-03T02:56:04.833Z,12.70
2018-08-03T02:58:33.294Z,8.03
2018-08-03T03:01:01.789Z,8.67
2018-08-03T03:03:30.197Z,7.90
2018-08-03T03:05:58.636Z,9.37
2018-08-03T03:08:27.077Z,8.40
2018-08-03T03:10:55.520Z,10.73
2018-08-03T03:13:23.944Z,8.00
2018-08-03T03:15:52.408Z,8.83
2018-08-03T03:18:20.839Z,10.47
2018-08-03T03:20:49.272Z,8.07
2018-08-03T03:23:17.712Z,8.80
2018-08-03T03:25:46.163Z,8.97
2018-08-03T03:28:14.620Z,12.77
2018-08-03T03:30:43.079Z,10.57
2018-08-03T03:33:11.512Z,10.17
2018-08-03T03:35:39.993Z,8.60
2018-08-03T03:38:08.438Z,9.90
2018-08-03T03:40:36.916Z,9.77
2018-08-03T03:43:05.372Z,9.10
2018-08-03T03:45:33.831Z,9.57
2018-08-03T03:48:02.296Z,12.03
2018-08-03T03:50:30.732Z,9.87
2018-08-03T03:52:59.193Z,13.30
2018-08-03T03:55:27.672Z,9.60
2018-08-03T03:57:56.105Z,12.23
2018-08-03T04:00:24.532Z,9.17
2018-08-03T04:02:52.936Z,10.80
2018-08-03T04:05:21.360Z,11.57
2018-08-03T04:07:49.796Z,13.23
2018-08-03T04:10:18.271Z,10.23
2018-08-03T04:12:46.716Z,12.43
2018-08-03T04:15:15.209Z,11.57
2018-08-03T04:17:43.718Z,11.23
2018-08-03T04:20:12.188Z,11.50
2018-08-03T04:22:41.069Z,12.70
2018-08-03T04:25:09.532Z,13.20
2018-08-03T04:27:37.960Z,12.13
2018-08-03T04:30:06.709Z,14.60
2018-08-03T04:32:35.165Z,13.03
2018-08-03T04:35:03.773Z,14.13
2018-08-03T04:37:32.501Z,14.20
2018-08-03T04:40:00.981Z,12.03
2018-08-03T04:42:29.459Z,11.27
2018-08-03T04:44:57.869Z,13.33
2018-08-03T04:47:26.293Z,13.17
2018-08-03T04:49:54.736Z,14.63
2018-08-03T04:52:23.673Z,12.57
2018-08-03T04:54:52.184Z,13.30
2018-08-03T04:57:20.613Z,11.80
2018-08-03T04:59:49.148Z,10.97
2018-08-03T05:02:17.642Z,11.70
2018-08-03T05:04:46.080Z,11.17
2018-08-03T05:07:14.540Z,11.70
2018-08-03T05:09:42.972Z,13.60
2018-08-03T05:12:11.521Z,9.70
2018-08-03T05:14:39.972Z,12.90
2018-08-03T05:17:08.426Z,12.97
2018-08-03T05:19:36.901Z,13.27
2018-08-03T05:22:05.414Z,10.70
2018-08-03T05:24:33.852Z,11.03
2018-08-03T05:27:02.305Z,10.37
2018-08-03T05:29:30.791Z,10.70
2018-08-03T05:31:59.252Z,10.37
2018-08-03T05:34:27.648Z,8.93
2018-08-03T05:36:56.108Z,10.07
2018-08-03T05:39:24.540Z,11.33
2018-08-03T05:41:53.021Z,13.20
2018-08-03T05:44:21.488Z,10.73
2018-08-03T05:46:49.914Z,9.03
2018-08-03T05:49:18.357Z,9.13
2018-08-03T05:51:46.805Z,10.33
2018-08-03T05:54:15.265Z,10.47
2018-08-03T05:56:43.732Z,13.73
2018-08-03T05:59:12.222Z,9.90
2018-08-03T06:01:40.709Z,9.53
2018-08-03T06:04:09.201Z,9.67
2018-08-03T06:06:38.846Z,12.63
2018-08-03T06:09:09.165Z,11.53
2018-08-03T06:11:37.692Z,13.33
2018-08-03T06:14:06.679Z,10.33
2018-08-03T06:16:35.377Z,10.50
2018-08-03T06:19:03.957Z,9.83
2018-08-03T06:21:32.468Z,10.43
2018-08-03T06:24:00.912Z,8.20
2018-08-03T06:26:29.368Z,10.80
2018-08-03T06:28:57.801Z,11.70
2018-08-03T06:31:26.320Z,10.37
2018-08-03T06:33:54.765Z,12.10
2018-08-03T06:36:23.276Z,8.97
2018-08-03T06:38:51.737Z,8.40
2018-08-03T06:41:20.238Z,11.83
2018-08-03T06:43:48.683Z,10.27
2018-08-03T06:46:17.133Z,12.87
2018-08-03T06:48:45.560Z,10.33
2018-08-03T06:51:14.007Z,8.90
2018-08-03T06:53:42.534Z,7.83
2018-08-03T06:56:10.992Z,12.17
2018-08-03T06:58:39.412Z,9.53
2018-08-03T07:01:08.109Z,10.87
2018-08-03T07:03:36.625Z,10.13
2018-08-03T07:06:05.100Z,12.20
2018-08-03T07:08:33.622Z,12.70
2018-08-03T07:11:02.024Z,10.87
2018-08-03T07:13:30.452Z,9.63
2018-08-03T07:15:58.924Z,12.80
2018-08-03T07:18:27.360Z,12.07
2018-08-03T07:20:55.864Z,9.67
2018-08-03T07:23:24.416Z,12.67
2018-08-03T07:25:52.873Z,10.07
2018-08-03T07:28:21.339Z,11.53
2018-08-03T07:30:49.820Z,11.47
2018-08-03T07:33:18.267Z,14.90
2018-08-03T07:35:46.738Z,12.50
2018-08-03T07:38:15.252Z,11.97
2018-08-03T07:40:43.785Z,18.33
2018-08-03T07:43:12.323Z,13.90
2018-08-03T07:45:40.735Z,16.13
2018-08-03T07:48:09.196Z,12.63
2018-08-03T07:50:37.656Z,13.73
2018-08-03T07:53:06.164Z,11.47
2018-08-03T07:55:34.593Z,10.60
2018-08-03T07:58:03.024Z,11.87
2018-08-03T08:00:31.498Z,11.40
2018-08-03T08:02:59.921Z,12.90
2018-08-03T08:05:28.383Z,13.33
2018-08-03T08:07:56.868Z,11.93
2018-08-03T08:10:25.370Z,12.90
2018-08-03T08:12:53.840Z,15.87
2018-08-03T08:15:22.376Z,12.30
2018-08-03T08:17:50.829Z,12.53
2018-08-03T08:20:19.336Z,9.83
2018-08-03T08:22:47.748Z,11.13
2018-08-03T08:25:16.215Z,9.07
2018-08-03T08:27:44.728Z,11.63
2018-08-03T08:30:13.189Z,10.67
2018-08-03T08:32:41.636Z,11.67
2018-08-03T08:35:10.105Z,10.63
2018-08-03T08:37:38.589Z,14.63
2018-08-03T08:40:07.269Z,9.37
2018-08-03T08:42:35.721Z,16.37
2018-08-03T08:45:04.505Z,12.90
2018-08-03T08:47:32.962Z,11.27
2018-08-03T08:50:01.407Z,11.53
2018-08-03T08:52:29.892Z,12.67
2018-08-03T08:54:58.330Z,12.67
2018-08-03T08:57:26.784Z,11.87
2018-08-03T08:59:55.246Z,11.20
2018-08-03T09:02:23.679Z,11.83
2018-08-03T09:04:52.144Z,13.03
2018-08-03T09:07:20.697Z,12.03
2018-08-03T09:09:49.152Z,13.23
2018-08-03T09:12:17.595Z,13.37
2018-08-03T09:14:46.082Z,10.60
2018-08-03T09:17:14.520Z,11.83
2018-08-03T09:19:42.969Z,11.47
2018-08-03T09:22:11.789Z,12.07
2018-08-03T09:24:40.186Z,10.40
2018-08-03T09:27:08.636Z,12.57
2018-08-03T09:29:37.052Z,11.73
2018-08-03T09:32:05.585Z,10.90
2018-08-03T09:34:34.004Z,12.80
2018-08-03T09:37:02.477Z,10.50
2018-08-03T09:39:30.943Z,11.47
2018-08-03T09:41:59.400Z,8.00
2018-08-03T09:44:27.846Z,10.27
2018-08-03T09:46:56.275Z,9.27
2018-08-03T09:49:24.680Z,8.60
2018-08-03T09:51:53.428Z,7.43
2018-08-03T09:54:22.002Z,11.13
2018-08-03T09:56:50.425Z,9.33
2018-08-03T09:59:18.853Z,7.87
2018-08-03T10:01:47.455Z,5.57
2018-08-03T10:04:15.872Z,6.60
2018-08-03T10:06:44.292Z,9.63
2018-08-03T10:09:12.764Z,10.23
2018-08-03T10:11:41.192Z,6.83
2018-08-03T10:14:09.670Z,10.63
2018-08-03T10:16:38.210Z,6.00
2018-08-03T10:19:06.641Z,11.00
2018-08-03T10:21:35.100Z,12.47
2018-08-03T10:24:03.557Z,10.93
2018-08-03T10:26:32.025Z,6.30
2018-08-03T10:29:00.515Z,9.13
2018-08-03T10:31:29.040Z,8.67
2018-08-03T10:33:57.517Z,11.47
2018-08-03T10:36:25.924Z,10.93
2018-08-03T10:38:54.405Z,7.80
2018-08-03T10:41:22.881Z,9.77
2018-08-03T10:43:51.317Z,9.40
2018-08-03T10:46:19.737Z,7.23
2018-08-03T10:48:48.233Z,5.33
2018-08-03T10:51:16.705Z,8.00
2018-08-03T10:53:45.155Z,7.80
2018-08-03T10:56:13.588Z,8.43
2018-08-03T10:58:42.029Z,7.43
2018-08-03T11:01:10.503Z,5.23
2018-08-03T11:03:38.921Z,6.53
2018-08-03T11:06:07.397Z,7.65
2018-08-03T11:08:35.833Z,5.70
2018-08-03T11:11:04.320Z,6.58
2018-08-03T11:13:32.773Z,4.92
2018-08-03T11:16:01.245Z,7.63
2018-08-03T11:18:29.700Z,7.33
2018-08-03T11:20:58.137Z,5.00
2018-08-03T11:23:26.560Z,5.80
2018-08-03T11:25:55.009Z,5.90
2018-08-03T11:28:23.511Z,6.87
2018-08-03T11:30:51.970Z,5.80
2018-08-03T11:33:20.404Z,8.00
2018-08-03T11:35:48.860Z,7.15
2018-08-03T11:38:17.312Z,6.12
2018-08-03T11:40:45.778Z,6.35
2018-08-03T11:43:14.305Z,7.37
2018-08-03T11:45:42.760Z,6.67
2018-08-03T11:48:11.176Z,4.27
2018-08-03T11:50:39.630Z,5.77
2018-08-03T11:53:08.096Z,5.87
2018-08-03T11:55:36.541Z,7.75
2018-08-03T11:58:05.013Z,6.00
2018-08-03T12:00:33.492Z,6.00
2018-08-03T12:03:01.949Z,5.80
2018-08-03T12:05:30.396Z,5.78
2018-08-03T12:07:58.817Z,4.92
2018-08-03T12:10:27.264Z,4.95
2018-08-03T12:12:55.680Z,6.72
2018-08-03T12:15:24.104Z,8.00
2018-08-03T12:17:52.588Z,6.55
2018-08-03T12:20:21.034Z,6.40
2018-08-03T12:22:49.488Z,8.68
2018-08-03T12:25:17.917Z,7.35
2018-08-03T12:27:46.385Z,6.25
2018-08-03T12:30:14.804Z,5.67
2018-08-03T12:32:43.241Z,7.97
2018-08-03T12:35:11.672Z,6.45
2018-08-03T12:37:40.109Z,6.78
2018-08-03T12:40:08.593Z,5.37
2018-08-03T12:42:37.000Z,4.67
2018-08-03T12:45:05.513Z,6.03
2018-08-03T12:47:33.936Z,7.25
2018-08-03T12:50:02.372Z,6.75
2018-08-03T12:52:30.864Z,8.33
2018-08-03T12:54:59.259Z,7.62
2018-08-03T12:57:27.724Z,6.53
2018-08-03T12:59:56.160Z,6.03
2018-08-03T13:02:24.595Z,7.00
2018-08-03T13:04:53.044Z,6.45
2018-08-03T13:07:21.600Z,10.43
2018-08-03T13:09:49.964Z,8.38
2018-08-03T13:12:18.453Z,8.43
2018-08-03T13:14:47.031Z,4.45
2018-08-03T13:17:15.377Z,8.70
2018-08-03T13:19:43.841Z,4.83
2018-08-03T13:22:17.705Z,6.45
2018-08-03T13:24:46.165Z,8.78
2018-08-03T13:27:14.602Z,6.93
2018-08-03T13:29:43.081Z,5.30
2018-08-03T13:32:11.555Z,6.13
2018-08-03T13:34:39.996Z,5.37
2018-08-03T13:37:08.448Z,5.53
2018-08-03T13:39:36.900Z,6.47
2018-08-03T13:42:05.380Z,6.10
2018-08-03T13:44:33.838Z,5.87
2018-08-03T13:47:02.288Z,5.05
2018-08-03T13:49:30.738Z,5.35
2018-08-03T13:51:59.152Z,4.70
2018-08-03T13:54:27.584Z,5.22
2018-08-03T13:56:56.037Z,4.92
2018-08-03T13:59:24.440Z,5.80
2018-08-03T14:02:04.092Z,6.25
2018-08-03T14:04:32.540Z,4.85
2018-08-03T14:07:00.997Z,5.15
2018-08-03T14:09:29.416Z,5.58
2018-08-03T14:11:57.844Z,8.58
2018-08-03T14:14:26.536Z,6.00
2018-08-03T14:16:54.976Z,4.47
2018-08-03T14:19:26.657Z,4.92
2018-08-03T14:21:55.140Z,8.10
2018-08-03T14:24:23.664Z,5.10
2018-08-03T14:26:52.089Z,4.70
2018-08-03T14:29:20.559Z,5.13
2018-08-03T14:31:49.029Z,4.07
2018-08-03T14:34:17.492Z,5.97
2018-08-03T14:36:45.949Z,4.67
2018-08-03T14:39:14.404Z,9.67
2018-08-03T14:41:42.805Z,7.23
2018-08-03T14:44:11.280Z,6.97
2018-08-03T14:46:40.260Z,4.57
2018-08-03T14:49:08.790Z,4.80
2018-08-03T14:51:37.762Z,6.87
2018-08-03T14:54:06.456Z,5.63
2018-08-03T14:56:34.992Z,4.80
2018-08-03T14:59:03.448Z,5.43
2018-08-03T15:01:31.896Z,7.07
2018-08-03T15:04:00.356Z,6.03
2018-08-03T15:06:28.800Z,5.37
2018-08-03T15:08:57.328Z,4.27
2018-08-03T15:11:25.766Z,7.70
2018-08-03T15:13:54.337Z,5.60
2018-08-03T15:16:22.773Z,5.07
2018-08-03T15:18:51.274Z,4.97
2018-08-03T15:21:19.724Z,7.47
2018-08-03T15:23:48.374Z,6.53
2018-08-03T15:26:16.876Z,6.37
2018-08-03T15:28:45.321Z,4.97
2018-08-03T15:31:13.748Z,5.53
2018-08-03T15:33:42.192Z,6.53
2018-08-03T15:36:10.632Z,5.47
2018-08-03T15:38:39.060Z,5.30
2018-08-03T15:41:07.647Z,5.23
2018-08-03T15:43:36.237Z,5.83
2018-08-03T15:46:04.879Z,5.03
2018-08-03T15:48:33.434Z,4.63
2018-08-03T15:51:01.894Z,4.47
2018-08-03T15:53:30.352Z,7.23
2018-08-03T15:55:58.937Z,4.53
2018-08-03T15:58:27.444Z,5.17
2018-08-03T16:00:55.921Z,7.77
2018-08-03T16:03:24.444Z,6.07
2018-08-03T16:05:52.864Z,4.03
2018-08-03T16:08:21.294Z,8.47
2018-08-03T16:10:49.732Z,8.80
2018-08-03T16:13:18.169Z,6.20
2018-08-03T16:15:46.608Z,4.97
2018-08-03T16:18:15.089Z,4.07
2018-08-03T16:20:43.544Z,5.47
2018-08-03T16:23:11.988Z,4.30
2018-08-03T16:25:40.432Z,6.37
2018-08-03T16:28:08.868Z,5.97
2018-08-03T16:30:37.611Z,4.73
2018-08-03T16:33:06.062Z,8.37
2018-08-03T16:35:34.778Z,5.33
2018-08-03T16:38:03.261Z,6.27
2018-08-03T16:40:31.716Z,5.30
2018-08-03T16:43:00.192Z,6.43
2018-08-03T16:45:28.780Z,6.07
2018-08-03T16:47:57.241Z,5.37
2018-08-03T16:50:25.733Z,5.47
2018-08-03T16:52:56.972Z,5.63
2018-08-03T16:55:25.424Z,9.27
2018-08-03T16:57:53.929Z,8.30
2018-08-03T17:00:22.353Z,6.80
2018-08-03T17:02:50.776Z,5.70
2018-08-03T17:05:19.218Z,6.70
2018-08-03T17:07:47.635Z,4.37
2018-08-03T17:10:16.120Z,4.63
2018-08-03T17:12:44.568Z,7.53
2018-08-03T17:15:13.001Z,4.53
2018-08-03T17:17:41.436Z,4.00
2018-08-03T17:20:09.893Z,4.43
2018-08-03T17:22:38.394Z,4.20
2018-08-03T17:25:06.849Z,8.73
2018-08-03T17:27:35.272Z,5.77
2018-08-03T17:30:03.772Z,4.20
2018-08-03T17:32:32.230Z,4.27
2018-08-03T17:35:00.696Z,4.10
2018-08-03T17:37:29.135Z,7.70
2018-08-03T17:39:57.609Z,6.67
2018-08-03T17:42:26.057Z,6.53
2018-08-03T17:44:54.524Z,6.17
2018-08-03T17:47:22.933Z,4.03
2018-08-03T17:49:51.384Z,3.73
2018-08-03T17:52:19.905Z,6.73
2018-08-03T17:54:48.406Z,4.13
2018-08-03T17:57:16.796Z,5.37
2018-08-03T17:59:45.240Z,4.10
2018-08-03T18:02:13.656Z,6.53
2018-08-03T18:04:42.085Z,5.93
2018-08-03T18:07:10.596Z,6.03
2018-08-03T18:09:39.033Z,4.73
2018-08-03T18:12:07.528Z,5.60
2018-08-03T18:14:35.977Z,4.70
2018-08-03T18:17:04.491Z,3.87
2018-08-03T18:19:39.590Z,6.77
2018-08-03T18:22:08.108Z,4.20
2018-08-03T18:24:36.600Z,7.03
2018-08-03T18:27:05.132Z,7.07
2018-08-03T18:29:33.597Z,5.67
2018-08-03T18:32:02.028Z,5.97
2018-08-03T18:34:30.551Z,6.60
2018-08-03T18:36:58.964Z,6.70
2018-08-03T18:39:27.440Z,6.80
2018-08-03T18:41:56.184Z,4.00
2018-08-03T18:44:24.632Z,6.17
2018-08-03T18:46:53.077Z,5.87
2018-08-03T18:49:21.513Z,5.87
2018-08-03T18:51:50.008Z,7.50
2018-08-03T18:54:18.453Z,6.20
2018-08-03T18:56:46.901Z,5.17
2018-08-03T18:59:15.364Z,4.63
2018-08-03T19:01:43.813Z,6.00
2018-08-03T19:04:12.268Z,5.37
2018-08-03T19:06:40.704Z,6.40
2018-08-03T19:09:09.352Z,4.83
2018-08-03T19:11:37.840Z,5.47
2018-08-03T19:14:06.512Z,6.67
2018-08-03T19:16:34.942Z,6.03
2018-08-03T19:19:03.376Z,7.20
2018-08-03T19:21:31.808Z,7.37
2018-08-03T19:24:00.251Z,4.83
2018-08-03T19:26:28.716Z,4.97
2018-08-03T19:28:57.144Z,7.93
2018-08-03T19:31:25.710Z,6.33
2018-08-03T19:33:54.256Z,6.13
2018-08-03T19:36:22.728Z,5.83
2018-08-03T19:38:51.168Z,5.30
2018-08-03T19:41:19.732Z,5.80
2018-08-03T19:43:48.343Z,8.03
2018-08-03T19:46:16.841Z,4.20
2018-08-03T19:48:45.321Z,8.87
2018-08-03T19:51:13.769Z,5.77
2018-08-03T19:53:42.190Z,4.90
2018-08-03T19:56:10.753Z,5.90
2018-08-03T19:58:39.211Z,7.47
2018-08-03T20:01:07.656Z,6.40
2018-08-03T20:03:36.101Z,10.40
2018-08-03T20:06:04.759Z,7.67
2018-08-03T20:08:33.180Z,4.83
2018-08-03T20:11:01.665Z,6.67
2018-08-03T20:13:30.293Z,6.23
2018-08-03T20:15:58.681Z,6.33
2018-08-03T20:18:27.143Z,5.37
2018-08-03T20:20:55.636Z,6.37
2018-08-03T20:23:24.167Z,5.77
2018-08-03T20:25:52.596Z,6.13
2018-08-03T20:28:21.004Z,4.43
2018-08-03T20:30:49.504Z,7.23
2018-08-03T20:33:18.060Z,5.43
2018-08-03T20:35:47.216Z,5.37
2018-08-03T20:38:15.737Z,7.17
2018-08-03T20:40:44.360Z,4.77
2018-08-03T20:43:12.824Z,5.87
2018-08-03T20:45:41.261Z,6.17
2018-08-03T20:48:09.744Z,5.17
2018-08-03T20:50:38.225Z,4.57
2018-08-03T20:53:06.697Z,6.23
2018-08-03T20:55:35.132Z,5.00
2018-08-03T20:58:03.597Z,3.93
2018-08-03T21:00:32.047Z,5.83
2018-08-03T21:03:00.508Z,4.30
2018-08-03T21:05:28.956Z,4.67
2018-08-03T21:07:57.424Z,7.00
2018-08-03T21:10:25.901Z,6.33
2018-08-03T21:12:54.568Z,6.43
2018-08-03T21:15:23.052Z,5.90
2018-08-03T21:17:51.476Z,6.83
2018-08-03T21:20:19.942Z,5.30
2018-08-03T21:22:48.397Z,4.47
2018-08-03T21:25:16.856Z,5.57
2018-08-03T21:27:45.382Z,7.17
2018-08-03T21:30:13.879Z,4.77
2018-08-03T21:32:42.305Z,6.07
2018-08-03T21:35:10.769Z,4.13
2018-08-03T21:37:39.360Z,4.13
2018-08-03T21:40:07.804Z,6.40
2018-08-03T21:42:36.376Z,4.03
2018-08-03T21:45:05.184Z,8.30
2018-08-03T21:47:33.609Z,4.67
2018-08-03T21:50:02.037Z,6.30
2018-08-03T21:52:30.576Z,4.93
2018-08-03T21:54:59.081Z,4.03
2018-08-03T21:57:27.533Z,8.97
2018-08-03T21:59:56.133Z,3.83
2018-08-03T22:02:24.579Z,5.20
2018-08-03T22:04:52.996Z,6.97
2018-08-03T22:07:21.460Z,4.73
2018-08-03T22:09:50.016Z,8.73
2018-08-03T22:12:18.509Z,5.30
2018-08-03T22:14:46.988Z,4.70
2018-08-03T22:17:15.485Z,4.83
2018-08-03T22:19:43.893Z,4.53
2018-08-03T22:22:12.296Z,4.60
2018-08-03T22:24:40.764Z,7.97
2018-08-03T22:27:09.152Z,3.87
2018-08-03T22:29:37.641Z,5.17
2018-08-03T22:32:06.084Z,5.57
2018-08-03T22:34:34.509Z,3.57
2018-08-03T22:37:02.978Z,4.67
2018-08-03T22:39:31.416Z,4.20
2018-08-03T22:41:59.877Z,3.60
2018-08-03T22:44:28.301Z,4.60
2018-08-03T22:46:56.882Z,5.03
2018-08-03T22:49:25.307Z,3.03
2018-08-03T22:51:53.744Z,5.23
2018-08-03T22:54:22.176Z,4.53
2018-08-03T22:56:50.628Z,3.40
2018-08-03T22:59:19.044Z,4.20
2018-08-03T23:01:47.480Z,3.57
2018-08-03T23:04:15.936Z,3.53
2018-08-03T23:06:44.372Z,3.77
2018-08-03T23:09:12.821Z,3.60
2018-08-03T23:11:41.257Z,3.07
2018-08-03T23:14:09.731Z,5.47
2018-08-03T23:16:38.178Z,5.17
2018-08-03T23:19:06.593Z,5.77
2018-08-03T23:21:35.053Z,4.10
2018-08-03T23:24:03.504Z,4.40
2018-08-03T23:26:31.980Z,3.63
2018-08-03T23:29:00.425Z,4.73
2018-08-03T23:31:28.889Z,2.83
2018-08-03T23:33:57.488Z,2.90
2018-08-03T23:36:25.924Z,2.80
2018-08-03T23:38:54.444Z,5.03
2018-08-03T23:41:22.912Z,3.03
2018-08-03T23:43:51.380Z,3.33
2018-08-03T23:46:22.648Z,5.03
2018-08-03T23:48:51.088Z,4.03
2018-08-03T23:51:20.484Z,7.33
2018-08-03T23:53:48.920Z,2.83
2018-08-03T23:56:17.350Z,3.70
2018-08-03T23:58:45.784Z,3.57
